Time;durP1;ratioP1;P1;durP2;ratioP2;P2;SDS_P1;SDS_P2;PMS_P1;PMS_P2;Temp;Humidity;BMP_temperature;BMP_pressure;BME280_temperature;BME280_humidity;BME280_pressure;Samples;Min_cycle;Max_cycle;Signal;HPM_P1;HPM_P2
2022/07/14 00:01:36;;;;;;;4.85;1.33;;;;;;;25.29;29.54;98864.91;4459890;32;20104;-81
2022/07/14 00:04:03;;;;;;;3.45;1.20;;;;;;;25.35;29.65;98855.25;4487071;32;20092;-81
2022/07/14 00:06:29;;;;;;;4.70;1.10;;;;;;;25.29;29.80;98857.63;4486278;32;20099;-80
2022/07/14 00:08:54;;;;;;;3.95;1.00;;;;;;;25.35;29.82;98855.25;4486945;32;20100;-81
2022/07/14 00:11:19;;;;;;;2.28;1.05;;;;;;;25.29;29.76;98852.25;4486820;32;20136;-81
2022/07/14 00:13:45;;;;;;;3.17;1.12;;;;;;;25.28;29.81;98855.13;4486724;32;20136;-81
2022/07/14 00:16:10;;;;;;;3.28;1.20;;;;;;;25.28;29.80;98853.28;4486846;32;20168;-81
2022/07/14 00:18:43;;;;;;;2.67;1.00;;;;;;;25.33;29.71;98851.91;4486766;32;20159;-81
2022/07/14 00:21:11;;;;;;;3.95;1.10;;;;;;;25.18;29.89;98852.59;4486874;32;20101;-81
2022/07/14 00:23:37;;;;;;;4.37;1.15;;;;;;;25.22;29.83;98851.28;4486768;32;20171;-81
2022/07/14 00:26:03;;;;;;;3.55;1.17;;;;;;;25.37;29.56;98850.53;4486785;32;20428;-81
2022/07/14 00:28:29;;;;;;;2.42;1.25;;;;;;;25.31;29.34;98855.59;4486654;32;20101;-81
2022/07/14 00:30:54;;;;;;;4.28;1.25;;;;;;;25.34;28.95;98850.87;4486602;32;20092;-81
2022/07/14 00:33:20;;;;;;;3.15;1.10;;;;;;;25.43;28.44;98852.50;4486279;32;20092;-81
2022/07/14 00:35:45;;;;;;;3.65;1.02;;;;;;;25.39;28.75;98854.72;4486211;32;20088;-81
2022/07/14 00:38:11;;;;;;;4.65;1.10;;;;;;;25.39;29.01;98857.41;4472004;32;20117;-81
2022/07/14 00:40:37;;;;;;;4.97;1.08;;;;;;;25.42;28.65;98851.69;4486234;32;20097;-81
2022/07/14 00:43:03;;;;;;;4.37;1.10;;;;;;;25.38;28.60;98860.28;4486189;32;20473;-81
2022/07/14 00:45:28;;;;;;;3.70;1.73;;;;;;;25.47;28.12;98856.53;4486123;32;20092;-81
2022/07/14 00:47:54;;;;;;;4.72;1.10;;;;;;;25.47;28.28;98854.66;4486195;32;20479;-81
2022/07/14 00:50:20;;;;;;;2.35;1.02;;;;;;;25.32;28.65;98861.84;4458876;32;20143;-81
2022/07/14 00:52:48;;;;;;;3.47;1.40;;;;;;;25.33;28.63;98858.13;4485934;32;20133;-80
2022/07/14 00:55:15;;;;;;;2.95;1.20;;;;;;;25.44;28.64;98860.44;4471713;32;20084;-80
2022/07/14 00:57:41;;;;;;;5.00;1.63;;;;;;;25.52;28.89;98856.84;4486002;32;20153;-80
2022/07/14 01:00:09;;;;;;;6.87;1.40;;;;;;;25.29;29.98;98857.63;4485993;32;20223;-81
2022/07/14 01:02:35;;;;;;;3.97;1.27;;;;;;;25.40;30.04;98855.56;4485991;32;20470;-81
2022/07/14 01:05:00;;;;;;;4.05;1.37;;;;;;;25.49;30.19;98855.31;4484631;32;20088;-81
2022/07/14 01:07:26;;;;;;;5.53;1.37;;;;;;;25.47;30.29;98851.97;4485852;32;20391;-81
2022/07/14 01:09:51;;;;;;;4.57;1.37;;;;;;;25.45;30.56;98845.91;4485785;32;20136;-82
2022/07/14 01:12:17;;;;;;;2.50;1.20;;;;;;;25.47;30.74;98851.13;4485800;32;20080;-81
2022/07/14 01:14:42;;;;;;;3.30;0.93;;;;;;;25.38;31.00;98853.06;4455567;32;20088;-81
2022/07/14 01:17:09;;;;;;;3.35;1.20;;;;;;;25.19;31.49;98850.75;4470013;32;20440;-81
2022/07/14 01:19:35;;;;;;;2.65;1.20;;;;;;;25.26;31.34;98852.59;4470062;32;20621;-81
2022/07/14 01:22:00;;;;;;;4.62;1.30;;;;;;;25.38;31.15;98850.37;4472291;32;20110;-81
2022/07/14 01:24:27;;;;;;;3.58;1.25;;;;;;;25.28;31.57;98850.59;4484385;32;20084;-81
2022/07/14 01:26:53;;;;;;;3.42;1.20;;;;;;;25.27;31.73;98848.91;4472332;32;20061;-81
2022/07/14 01:29:18;;;;;;;3.97;1.30;;;;;;;25.36;31.69;98854.22;4484201;32;20145;-82
2022/07/14 01:31:44;;;;;;;2.50;1.10;;;;;;;25.24;31.91;98845.69;4472080;32;20094;-81
2022/07/14 01:34:10;;;;;;;3.95;1.20;;;;;;;25.23;32.05;98844.03;4484042;32;20080;-82
2022/07/14 01:36:35;;;;;;;4.78;1.30;;;;;;;25.22;31.93;98840.47;4472154;32;20092;-80
2022/07/14 01:39:02;;;;;;;2.92;1.10;;;;;;;25.22;31.86;98840.47;4472210;32;20140;-81
2022/07/14 01:41:27;;;;;;;3.72;1.10;;;;;;;25.31;31.68;98842.13;4472138;32;20512;-81
2022/07/14 01:43:53;;;;;;;5.35;1.08;;;;;;;25.30;31.65;98839.59;4484078;32;20112;-81
2022/07/14 01:46:19;;;;;;;6.65;1.40;;;;;;;25.35;31.54;98834.53;4472126;32;20096;-81
2022/07/14 01:48:44;;;;;;;5.28;1.23;;;;;;;25.43;31.48;98830.94;4472096;32;20444;-81
2022/07/14 01:51:10;;;;;;;4.43;1.40;;;;;;;25.49;31.47;98824.81;4471951;32;20093;-80
2022/07/14 01:53:35;;;;;;;4.20;1.50;;;;;;;25.49;31.57;98830.22;4470837;32;20387;-81
2022/07/14 01:56:01;;;;;;;4.78;1.30;;;;;;;25.34;32.24;98829.31;4471998;32;20127;-80
2022/07/14 01:58:26;;;;;;;6.28;1.33;;;;;;;25.39;32.00;98829.63;4483959;32;20101;-81
2022/07/14 02:03:37;;;;;;;3.75;1.15;;;;;;;25.41;31.90;98819.50;4471980;32;20145;-81
2022/07/14 02:06:03;;;;;;;4.60;1.40;;;;;;;25.47;31.32;98821.47;4472037;32;20100;-81
2022/07/14 02:08:29;;;;;;;6.00;1.30;;;;;;;25.53;30.67;98825.31;4471934;32;20110;-81
2022/07/14 02:13:38;;;;;;;2.92;1.30;;;;;;;25.64;31.05;98827.59;4472009;32;20104;-81
2022/07/14 02:16:04;;;;;;;5.62;1.90;;;;;;;25.63;31.56;98828.59;4470495;32;20116;-81
2022/07/14 02:18:29;;;;;;;5.15;1.40;;;;;;;25.60;31.80;98826.28;4471839;32;20476;-82
2022/07/14 02:20:54;;;;;;;6.03;1.33;;;;;;;25.65;31.77;98819.34;4471902;32;20092;-81
2022/07/14 02:23:21;;;;;;;9.05;1.60;;;;;;;25.63;32.06;98823.22;4457660;32;20113;-82
2022/07/14 02:25:47;;;;;;;4.03;1.30;;;;;;;25.61;32.08;98823.41;4471824;32;20089;-81
2022/07/14 02:28:12;;;;;;;4.62;1.20;;;;;;;25.62;32.38;98821.53;4470511;32;20123;-81
2022/07/14 02:30:38;;;;;;;5.80;1.50;;;;;;;25.55;32.44;98834.91;4471292;32;20115;-81
2022/07/14 02:33:04;;;;;;;4.25;1.40;;;;;;;25.46;32.58;98836.00;4470566;32;20089;-82
2022/07/14 02:35:29;;;;;;;5.07;1.30;;;;;;;25.50;32.71;98835.44;4471717;32;20108;-82
2022/07/14 02:37:55;;;;;;;4.30;1.83;;;;;;;25.47;32.73;98837.66;4470659;32;20112;-82
2022/07/14 02:40:20;;;;;;;5.43;1.60;;;;;;;25.36;33.07;98838.88;4471704;32;20126;-81
2022/07/14 02:42:45;;;;;;;3.08;1.27;;;;;;;25.23;33.26;98833.25;4471671;32;20085;-81
2022/07/14 02:45:11;;;;;;;3.30;1.50;;;;;;;25.37;33.08;98839.75;4470580;32;20495;-81
2022/07/14 02:47:37;;;;;;;4.12;1.23;;;;;;;25.18;33.36;98839.12;4471647;32;20154;-81
2022/07/14 02:50:03;;;;;;;4.45;1.70;;;;;;;25.15;33.49;98835.94;4470542;32;20097;-81
2022/07/14 02:52:29;;;;;;;5.28;1.40;;;;;;;25.00;33.76;98839.38;4471603;32;20096;-81
2022/07/14 02:54:55;;;;;;;4.53;1.58;;;;;;;25.04;33.68;98850.66;4470324;32;20116;-81
2022/07/14 02:57:20;;;;;;;2.78;1.40;;;;;;;25.05;33.67;98845.09;4471734;32;20248;-82
2022/07/14 02:59:45;;;;;;;3.65;1.50;;;;;;;25.09;33.62;98841.03;4471545;32;20156;-81
2022/07/14 03:02:11;;;;;;;5.12;1.60;;;;;;;25.20;33.53;98845.19;4470413;32;20197;-81
2022/07/14 03:04:36;;;;;;;4.05;1.30;;;;;;;25.14;33.65;98851.28;4471534;32;20369;-81
2022/07/14 03:07:02;;;;;;;5.40;1.40;;;;;;;25.16;33.66;98848.41;4470330;32;20187;-82
2022/07/14 03:09:27;;;;;;;4.85;1.60;;;;;;;25.16;33.73;98851.94;4471612;32;20084;-80
2022/07/14 03:11:53;;;;;;;3.75;1.50;;;;;;;25.26;33.68;98849.06;4471334;32;20141;-80
2022/07/14 03:14:18;;;;;;;3.42;1.30;;;;;;;25.22;33.74;98850.41;4473838;32;20108;-80
2022/07/14 03:16:44;;;;;;;5.15;1.42;;;;;;;25.15;33.82;98854.81;4487221;32;20125;-81
2022/07/14 03:19:09;;;;;;;5.40;1.70;;;;;;;25.06;34.10;98846.78;4487186;32;20107;-79
2022/07/14 03:21:35;;;;;;;2.92;1.30;;;;;;;24.98;34.29;98852.19;4487173;32;20089;-81
2022/07/14 03:24:00;;;;;;;5.60;1.40;;;;;;;25.03;34.25;98859.75;4472855;32;20101;-81
2022/07/14 03:26:28;;;;;;;4.18;1.55;;;;;;;24.95;34.40;98868.72;4487145;32;20088;-81
2022/07/14 03:28:53;;;;;;;5.05;1.42;;;;;;;25.02;34.32;98864.31;4472689;32;20128;-81
2022/07/14 03:31:19;;;;;;;4.40;1.60;;;;;;;25.20;34.05;98864.06;4487005;32;20132;-81
2022/07/14 03:33:44;;;;;;;5.07;1.67;;;;;;;25.04;34.29;98859.59;4472813;32;20104;-81
2022/07/14 03:36:10;;;;;;;6.10;1.60;;;;;;;25.02;34.36;98858.91;4486937;32;20084;-81
2022/07/14 03:38:35;;;;;;;8.23;1.60;;;;;;;25.11;34.25;98857.00;4472783;32;20092;-81
2022/07/14 03:41:03;;;;;;;6.68;1.77;;;;;;;24.95;34.63;98855.22;4486468;32;20124;-81
2022/07/14 03:43:29;;;;;;;5.53;1.80;;;;;;;25.09;34.53;98856.34;4486441;32;20092;-81
2022/07/14 03:45:54;;;;;;;4.10;1.60;;;;;;;25.18;34.48;98854.47;4486981;32;20114;-81
2022/07/14 03:48:21;;;;;;;6.00;1.55;;;;;;;25.21;34.46;98854.97;4459564;32;20108;-81
2022/07/14 03:50:47;;;;;;;5.30;2.00;;;;;;;25.31;34.26;98854.78;4486752;32;20155;-81
2022/07/14 03:53:12;;;;;;;5.00;1.77;;;;;;;25.22;34.40;98861.19;4472628;32;20146;-81
2022/07/14 03:55:38;;;;;;;4.85;1.55;;;;;;;25.48;33.90;98856.38;4486815;32;20111;-81
2022/07/14 03:58:03;;;;;;;7.37;1.67;;;;;;;25.39;34.11;98857.41;4486810;32;20076;-81
2022/07/14 04:00:29;;;;;;;5.47;1.75;;;;;;;25.51;34.04;98853.28;4486836;32;20127;-81
2022/07/14 04:02:54;;;;;;;3.70;1.40;;;;;;;25.47;34.08;98851.97;4472521;32;20164;-81
2022/07/14 04:05:20;;;;;;;6.80;1.60;;;;;;;25.44;34.08;98857.75;4486753;32;20096;-81
2022/07/14 04:07:46;;;;;;;3.10;1.40;;;;;;;25.45;33.99;98847.78;4459208;32;20084;-81
2022/07/14 04:10:11;;;;;;;4.55;1.37;;;;;;;25.67;33.72;98846.97;4486696;32;20120;-81
2022/07/14 04:12:36;;;;;;;4.10;1.40;;;;;;;25.85;33.25;98852.06;4472284;32;20123;-81
2022/07/14 04:15:03;;;;;;;5.25;1.60;;;;;;;25.90;33.02;98859.59;4486415;32;20130;-81
2022/07/14 04:17:28;;;;;;;5.10;1.40;;;;;;;26.20;33.04;98854.34;4486541;32;20087;-80
2022/07/14 04:19:53;;;;;;;4.35;1.35;;;;;;;26.33;32.71;98851.88;4486603;32;20148;-81
2022/07/14 04:22:19;;;;;;;5.28;1.52;;;;;;;26.58;31.95;98854.28;4486490;32;20080;-81
2022/07/14 04:24:44;;;;;;;6.65;1.55;;;;;;;26.75;31.53;98853.13;4486479;32;20092;-81
2022/07/14 04:27:10;;;;;;;4.50;1.60;;;;;;;26.76;31.37;98848.56;4486441;32;20123;-81
2022/07/14 04:29:35;;;;;;;5.37;1.40;;;;;;;26.88;31.59;98858.72;4486384;32;20117;-81
2022/07/14 04:32:00;;;;;;;3.70;1.55;;;;;;;26.91;30.80;98854.81;4486202;32;20118;-81
2022/07/14 04:34:26;;;;;;;3.53;1.40;;;;;;;27.17;30.74;98848.91;4485147;32;20100;-80
2022/07/14 04:36:51;;;;;;;5.82;1.30;;;;;;;27.26;31.51;98853.22;4486354;32;20110;-81
2022/07/14 04:39:17;;;;;;;3.85;1.25;;;;;;;27.42;30.93;98848.59;4486273;32;20104;-82
2022/07/14 04:41:42;;;;;;;5.53;1.23;;;;;;;27.74;30.26;98841.00;4486196;32;20096;-81
2022/07/14 04:44:08;;;;;;;2.95;1.05;;;;;;;27.90;29.39;98846.22;4486272;32;20076;-81
2022/07/14 04:46:33;;;;;;;4.03;1.40;;;;;;;28.07;29.46;98841.38;4486198;32;20463;-81
2022/07/14 04:54:26;;;;;;;2.35;1.20;;;;;;;29.05;28.45;98849.53;4488035;32;20172;-80
2022/07/14 04:56:52;;;;;;;2.50;1.15;;;;;;;29.28;27.89;98841.09;4473753;32;20099;-80
2022/07/14 04:59:17;;;;;;;2.62;1.12;;;;;;;29.16;27.17;98843.56;4488118;32;20110;-81
2022/07/14 05:01:43;;;;;;;3.55;1.37;;;;;;;29.18;27.28;98852.34;4473957;32;20120;-81
2022/07/14 05:04:08;;;;;;;4.90;1.67;;;;;;;29.16;27.09;98846.28;4488356;32;20436;-81
2022/07/14 05:06:34;;;;;;;4.45;1.40;;;;;;;28.87;27.30;98851.97;4474106;32;20364;-81
2022/07/14 05:08:59;;;;;;;6.97;1.45;;;;;;;28.88;27.51;98834.63;4488357;32;20084;-81
2022/07/14 05:11:25;;;;;;;9.55;1.85;;;;;;;28.91;27.46;98845.09;4488214;32;20345;-80
2022/07/14 05:13:53;;;;;;;6.22;1.40;;;;;;;28.99;27.15;98840.34;4488407;32;20089;-80
2022/07/14 05:16:18;;;;;;;3.40;1.20;;;;;;;28.85;27.17;98845.91;4474015;32;20096;-80
2022/07/14 05:18:44;;;;;;;3.15;1.20;;;;;;;29.01;27.22;98850.97;4488330;32;20106;-79
2022/07/14 05:21:09;;;;;;;3.85;1.20;;;;;;;28.68;27.72;98854.34;4473894;32;20113;-80
2022/07/14 05:23:35;;;;;;;3.58;1.20;;;;;;;29.14;26.94;98850.25;4460694;32;20120;-80
2022/07/14 05:26:01;;;;;;;2.62;1.23;;;;;;;29.20;26.99;98855.69;4487923;32;20088;-80
2022/07/14 05:28:26;;;;;;;4.12;1.30;;;;;;;29.26;26.96;98858.63;4487813;32;20111;-80
2022/07/14 05:31:00;;;;;;;4.15;1.40;;;;;;;29.33;26.90;98863.03;4460829;32;20117;-81
2022/07/14 05:33:26;;;;;;;6.53;1.40;;;;;;;29.46;26.52;98854.12;4487983;32;20105;-79
2022/07/14 05:35:52;;;;;;;4.03;1.30;;;;;;;29.46;26.79;98845.97;4472986;32;20149;-80
2022/07/14 05:38:17;;;;;;;5.10;1.30;;;;;;;29.35;26.71;98857.44;4487773;32;20340;-80
2022/07/14 05:40:42;;;;;;;3.42;1.20;;;;;;;29.40;26.62;98852.22;4473520;32;20494;-80
2022/07/14 05:43:08;;;;;;;5.82;1.50;;;;;;;29.66;26.16;98850.63;4487641;32;20108;-81
2022/07/14 05:45:33;;;;;;;1.92;1.17;;;;;;;29.66;26.29;98853.34;4487734;32;20135;-81
2022/07/14 05:47:59;;;;;;;4.70;1.30;;;;;;;29.81;26.20;98845.88;4471393;32;20364;-80
2022/07/14 05:50:25;;;;;;;4.07;1.37;;;;;;;30.00;25.98;98846.94;4473481;32;20111;-80
2022/07/14 05:52:50;;;;;;;3.60;1.30;;;;;;;30.05;25.44;98852.56;4487536;32;20119;-81
2022/07/14 05:55:16;;;;;;;2.53;1.12;;;;;;;30.08;25.58;98851.34;4473225;32;20116;-79
2022/07/14 05:57:42;;;;;;;2.87;1.25;;;;;;;30.22;25.45;98839.41;4487656;32;20490;-80
2022/07/14 06:00:08;;;;;;;4.85;1.30;;;;;;;30.32;25.13;98844.47;4471988;32;20108;-80
2022/07/14 06:02:34;;;;;;;4.03;1.25;;;;;;;29.91;25.50;98842.75;4486124;32;20638;-80
2022/07/14 06:04:59;;;;;;;4.43;1.20;;;;;;;30.30;25.22;98847.34;4472202;32;20114;-80
2022/07/14 06:07:25;;;;;;;3.42;1.17;;;;;;;30.38;25.10;98841.75;4487942;32;20107;-80
2022/07/14 06:09:50;;;;;;;4.65;1.10;;;;;;;30.65;24.85;98832.69;4487795;32;20103;-80
2022/07/14 06:12:16;;;;;;;3.90;1.20;;;;;;;30.77;24.58;98833.69;4487722;32;20089;-80
2022/07/14 06:14:43;;;;;;;3.87;1.20;;;;;;;30.76;24.09;98835.59;4487666;32;20088;-80
2022/07/14 06:17:09;;;;;;;7.25;1.95;;;;;;;30.80;24.20;98832.47;4487997;32;20080;-80
2022/07/14 06:19:35;;;;;;;5.20;1.40;;;;;;;31.13;23.77;98844.06;4486598;32;20357;-80
2022/07/14 06:22:05;;;;;;;4.68;1.10;;;;;;;31.28;23.49;98827.47;4487781;32;20126;-80
2022/07/14 06:24:31;;;;;;;7.00;1.33;;;;;;;31.34;23.43;98829.34;4487752;32;20084;-80
2022/07/14 06:26:56;;;;;;;2.00;1.10;;;;;;;31.44;23.55;98837.03;4487802;32;20107;-80
2022/07/14 06:29:22;;;;;;;4.50;1.10;;;;;;;31.33;23.30;98829.53;4487666;32;20092;-80
2022/07/14 06:31:49;;;;;;;5.07;1.50;;;;;;;31.53;23.39;98833.03;4487648;32;20122;-80
2022/07/14 06:34:14;;;;;;;4.72;1.20;;;;;;;31.36;23.90;98837.28;4487606;32;20207;-80
2022/07/14 06:36:40;;;;;;;2.90;1.10;;;;;;;31.65;23.52;98837.78;4487591;32;20107;-80
2022/07/14 06:39:05;;;;;;;3.62;1.30;;;;;;;31.67;23.66;98832.94;4487626;32;20158;-80
2022/07/14 06:41:31;;;;;;;4.55;1.20;;;;;;;31.84;23.52;98828.63;4473496;32;20379;-80
2022/07/14 06:43:56;;;;;;;4.50;1.30;;;;;;;31.93;23.20;98819.16;4487610;32;20091;-80
2022/07/14 06:46:21;;;;;;;3.75;1.30;;;;;;;32.07;23.08;98825.34;4487648;32;20092;-80
2022/07/14 06:48:47;;;;;;;3.92;1.30;;;;;;;32.25;22.56;98821.00;4487575;32;20149;-80
2022/07/14 06:51:12;;;;;;;2.33;1.10;;;;;;;32.53;22.20;98818.63;4487563;32;20100;-80
2022/07/14 06:53:38;;;;;;;4.20;1.20;;;;;;;32.59;22.42;98822.38;4487460;32;20424;-80
2022/07/14 06:56:04;;;;;;;7.47;1.40;;;;;;;32.65;22.00;98821.47;4487256;31;20076;-80
2022/07/14 06:58:30;;;;;;;5.68;1.08;;;;;;;32.97;22.13;98823.22;4491179;31;20092;-80
2022/07/14 07:00:55;;;;;;;5.85;1.23;;;;;;;33.06;21.89;98822.69;4481975;31;20192;-81
2022/07/14 07:03:21;;;;;;;3.58;1.10;;;;;;;33.47;21.60;98823.84;4484333;31;20088;-78
2022/07/14 07:08:30;;;;;;;4.22;1.20;;;;;;;33.80;21.33;98821.72;4502333;31;20118;-76
2022/07/14 07:10:56;;;;;;;3.37;1.02;;;;;;;34.09;21.28;98822.72;4501440;31;20359;-79
2022/07/14 07:13:22;;;;;;;3.83;1.20;;;;;;;34.00;20.84;98824.16;4472985;32;20101;-81
2022/07/14 07:15:48;;;;;;;3.67;1.15;;;;;;;34.08;20.67;98824.63;4486908;32;20084;-78
2022/07/14 07:18:13;;;;;;;3.75;1.12;;;;;;;33.96;21.09;98823.78;4486962;32;20096;-80
2022/07/14 07:20:39;;;;;;;2.37;1.10;;;;;;;34.13;20.22;98820.34;4487079;32;20096;-81
2022/07/14 07:23:05;;;;;;;4.12;1.20;;;;;;;33.96;20.93;98823.78;4487453;32;20084;-83
2022/07/14 07:25:31;;;;;;;2.30;1.10;;;;;;;34.03;20.33;98819.03;4486845;32;20084;-81
2022/07/14 07:27:56;;;;;;;2.92;1.20;;;;;;;33.94;20.82;98817.72;4472898;32;20101;-82
2022/07/14 07:30:21;;;;;;;6.18;1.30;;;;;;;34.14;21.01;98822.03;4487053;32;20391;-81
2022/07/14 07:32:47;;;;;;;4.20;1.35;;;;;;;34.15;20.62;98818.22;4486721;32;20096;-82
2022/07/14 07:35:13;;;;;;;6.03;1.27;;;;;;;34.09;20.96;98819.97;4487345;32;20428;-83
2022/07/14 07:37:38;;;;;;;4.30;1.30;;;;;;;34.03;20.80;98807.25;4472460;32;20382;-82
2022/07/14 07:40:04;;;;;;;2.70;1.20;;;;;;;33.88;21.26;98810.44;4472430;32;20114;-80
2022/07/14 07:42:30;;;;;;;4.47;1.55;;;;;;;34.07;21.12;98813.91;4486799;31;20065;-81
2022/07/14 07:44:55;;;;;;;7.07;1.27;;;;;;;33.85;21.06;98816.41;4473031;32;20106;-81
2022/07/14 07:47:23;;;;;;;4.68;1.30;;;;;;;33.76;21.13;98815.06;4486772;32;20119;-81
2022/07/14 07:49:49;;;;;;;4.43;1.25;;;;;;;33.91;21.12;98811.87;4486599;32;20410;-82
2022/07/14 07:52:14;;;;;;;6.95;1.37;;;;;;;33.55;21.15;98819.94;4486683;31;20106;-81
2022/07/14 07:54:40;;;;;;;4.45;1.20;;;;;;;33.76;21.25;98813.16;4486864;32;20080;-81
2022/07/14 07:57:05;;;;;;;4.45;1.27;;;;;;;33.86;21.04;98799.78;4486918;32;20127;-84
2022/07/14 07:59:31;;;;;;;5.93;1.58;;;;;;;33.69;21.20;98809.72;4486661;32;20144;-86
2022/07/14 08:01:56;;;;;;;5.68;1.40;;;;;;;33.52;20.84;98805.94;4486479;31;20102;-85
2022/07/14 08:04:22;;;;;;;3.72;1.30;;;;;;;33.19;21.22;98799.88;4486475;31;20122;-84
2022/07/14 08:06:47;;;;;;;5.78;1.40;;;;;;;33.27;21.31;98802.28;4486946;32;20201;-83
2022/07/14 08:09:13;;;;;;;4.57;1.35;;;;;;;33.48;21.68;98800.94;4486395;31;20134;-83
2022/07/14 08:11:42;;;;;;;4.10;1.15;;;;;;;33.55;21.24;98802.72;4486330;31;20106;-83
2022/07/14 08:14:47;;;;;;;3.05;1.30;;;;;;;33.82;21.22;98795.84;4472099;32;20101;-82
2022/07/14 08:16:57;;;;;;;6.05;1.40;;;;;;;34.00;20.86;98785.88;4485823;31;20097;-83
2022/07/14 08:19:23;;;;;;;5.65;1.35;;;;;;;34.14;20.73;98795.50;4486624;32;20093;-82
2022/07/14 08:21:49;;;;;;;4.53;1.42;;;;;;;34.07;20.01;98795.63;4486075;32;20087;-83
2022/07/14 08:24:14;;;;;;;3.00;1.10;;;;;;;34.14;19.95;98806.44;4485910;31;20147;-84
2022/07/14 08:26:40;;;;;;;6.80;1.30;;;;;;;33.85;20.32;98806.28;4485860;32;20093;-83
2022/07/14 08:29:06;;;;;;;3.90;1.20;;;;;;;33.78;20.48;98807.47;4485841;32;20100;-84
2022/07/14 08:31:32;;;;;;;4.40;1.17;;;;;;;33.77;20.31;98803.06;4471570;32;20092;-84
2022/07/14 08:33:57;;;;;;;9.30;1.52;;;;;;;33.82;19.82;98800.44;4485854;32;20111;-84
2022/07/14 08:36:23;;;;;;;6.82;1.30;;;;;;;33.95;20.06;98789.31;4486808;31;20120;-85
2022/07/14 08:38:48;;;;;;;5.12;1.35;;;;;;;34.20;19.99;98788.28;4492991;31;20092;-82
2022/07/14 08:41:14;;;;;;;5.07;1.30;;;;;;;33.98;19.16;98794.31;4478286;31;20093;-85
2022/07/14 08:43:40;;;;;;;7.15;1.27;;;;;;;34.11;18.81;98787.78;4493152;31;20456;-85
2022/07/14 08:46:05;;;;;;;4.68;1.15;;;;;;;33.86;18.79;98786.09;4494029;31;20124;-84
2022/07/14 08:48:32;;;;;;;3.25;1.20;;;;;;;33.59;18.80;98784.81;4493747;31;20118;-85
2022/07/14 08:50:59;;;;;;;6.68;1.40;;;;;;;33.65;19.24;98792.09;4497205;31;20114;-84
2022/07/14 08:53:26;;;;;;;2.67;1.20;;;;;;;33.64;19.18;98791.28;4474215;32;20435;-84
2022/07/14 08:55:51;;;;;;;;;;;;;;;33.40;19.48;98784.88;4471710;32;20096;-84
2022/07/14 08:58:17;;;;;;;7.32;1.40;;;;;;;33.44;19.81;98790.72;4471434;32;20043;-86
2022/07/14 09:00:43;;;;;;;3.12;1.10;;;;;;;33.45;19.93;98787.72;4485986;32;20115;-86
2022/07/14 09:03:09;;;;;;;3.15;1.27;;;;;;;33.45;19.68;98786.91;4485633;32;20092;-85
2022/07/14 09:05:38;;;;;;;2.92;0.80;;;;;;;33.37;19.25;98779.88;4485737;32;20131;-86
2022/07/14 09:08:04;;;;;;;2.72;0.98;;;;;;;33.54;18.98;98779.22;4471439;32;20507;-84
2022/07/14 09:10:29;;;;;;;3.95;1.42;;;;;;;33.47;18.86;98780.13;4485607;32;20084;-84
2022/07/14 09:13:12;;;;;;;5.05;1.30;;;;;;;33.59;18.89;98777.47;4485990;32;20080;-83
2022/07/14 09:15:44;;;;;;;3.65;1.00;;;;;;;33.68;18.76;98770.59;4485630;32;20127;-83
2022/07/14 09:18:19;;;;;;;3.78;1.20;;;;;;;33.74;18.38;98774.31;4485850;32;20478;-84
2022/07/14 09:20:45;;;;;;;5.85;1.25;;;;;;;33.80;18.56;98761.59;4471777;32;20156;-84
2022/07/14 09:23:10;;;;;;;5.45;1.20;;;;;;;33.97;18.39;98756.28;4485814;32;20080;-84
2022/07/14 09:25:37;;;;;;;6.65;1.27;;;;;;;34.01;18.41;98763.75;4485914;32;20114;-84
2022/07/14 09:28:04;;;;;;;3.72;1.10;;;;;;;34.18;18.77;98763.09;4485567;32;20080;-84
2022/07/14 09:30:31;;;;;;;2.40;1.12;;;;;;;34.09;18.17;98762.56;4471330;32;20080;-83
2022/07/14 09:33:01;;;;;;;4.03;1.17;;;;;;;34.18;18.24;98754.91;4482534;32;20141;-85
2022/07/14 09:35:34;;;;;;;4.60;1.23;;;;;;;34.18;18.32;98747.50;4468031;32;20096;-84
2022/07/14 09:38:01;;;;;;;4.82;1.40;;;;;;;34.24;18.33;98751.19;4484943;32;20156;-84
2022/07/14 09:40:29;;;;;;;4.82;1.10;;;;;;;34.10;18.08;98749.75;4486551;32;20110;-84
2022/07/14 09:43:02;;;;;;;3.50;1.20;;;;;;;34.15;18.18;98749.84;4487879;32;20080;-84
2022/07/14 09:45:34;;;;;;;3.08;1.20;;;;;;;34.15;18.11;98756.22;4473560;32;20096;-84
2022/07/14 09:48:10;;;;;;;2.85;1.12;;;;;;;34.22;18.33;98745.97;4487837;32;20096;-84
2022/07/14 09:50:42;;;;;;;6.72;1.30;;;;;;;34.24;18.22;98745.72;4487726;32;20436;-84
2022/07/14 09:53:15;;;;;;;4.47;1.30;;;;;;;34.30;18.45;98743.94;4487776;32;20163;-85
2022/07/14 09:55:52;;;;;;;4.35;1.25;;;;;;;34.25;18.55;98741.94;4473601;32;20084;-84
2022/07/14 09:58:21;;;;;;;7.70;1.40;;;;;;;34.29;18.48;98737.66;4485804;32;20151;-84
2022/07/14 10:01:14;;;;;;;5.60;1.35;;;;;;;34.38;18.27;98749.88;4470143;32;20088;-83
2022/07/14 10:03:42;;;;;;;6.03;1.25;;;;;;;34.32;17.69;98739.06;4467044;32;20088;-84
2022/07/14 10:06:08;;;;;;;5.00;1.30;;;;;;;34.41;17.93;98748.56;4484505;32;20435;-84
2022/07/14 10:08:35;;;;;;;4.50;1.10;;;;;;;34.28;17.35;98731.34;4484572;32;20114;-84
2022/07/14 10:11:03;;;;;;;3.60;1.05;;;;;;;34.25;18.03;98742.75;4484449;32;20115;-86
2022/07/14 10:13:30;;;;;;;5.10;1.23;;;;;;;34.28;17.77;98734.06;4484450;32;20080;-85
2022/07/14 10:15:56;;;;;;;5.90;1.50;;;;;;;34.19;18.12;98731.94;4484353;32;20127;-83
2022/07/14 10:18:23;;;;;;;4.78;1.20;;;;;;;34.25;18.30;98723.62;4484477;32;20147;-87
2022/07/14 10:20:50;;;;;;;;;;;;;;;34.34;17.76;98726.81;4470483;32;20201;-84
2022/07/14 10:23:17;;;;;;;4.05;1.10;;;;;;;34.22;18.09;98715.88;4470082;32;19975;-85
2022/07/14 10:25:46;;;;;;;3.00;1.30;;;;;;;34.12;18.34;98712.09;4484415;32;20234;-81
2022/07/14 10:28:12;;;;;;;3.22;1.48;;;;;;;34.02;18.04;98716.25;4470156;32;20183;-83
2022/07/14 10:30:48;;;;;;;8.48;1.75;;;;;;;34.07;18.26;98712.78;4469967;32;20361;-83
2022/07/14 10:33:44;;;;;;;4.73;1.20;;;;;;;34.15;19.00;98712.47;4470107;32;20474;-82
2022/07/14 10:36:15;;;;;;;8.00;1.40;;;;;;;34.22;17.55;98715.88;4461611;32;20117;-81
2022/07/14 10:39:06;;;;;;;6.22;1.55;;;;;;;33.99;17.33;98708.50;4484347;32;20084;-82
2022/07/14 10:41:47;;;;;;;2.87;1.08;;;;;;;33.96;17.38;98703.53;4419790;32;20189;-83
2022/07/14 10:44:21;;;;;;;4.70;1.58;;;;;;;33.74;17.79;98707.91;4422837;32;20086;-82
2022/07/14 10:46:48;;;;;;;2.95;1.20;;;;;;;33.87;17.78;98697.56;4410242;32;20109;-81
2022/07/14 10:49:14;;;;;;;;;;;;;;;34.05;18.12;98693.88;4423342;32;20121;-83
2022/07/14 10:51:50;;;;;;;4.30;1.02;;;;;;;34.18;17.64;98698.31;4422670;32;20118;-83
2022/07/14 10:54:23;;;;;;;4.93;1.37;;;;;;;33.83;17.75;98687.38;4422774;32;20081;-82
2022/07/14 10:56:48;;;;;;;6.62;1.40;;;;;;;34.18;18.32;98692.00;4434993;32;20140;-82
2022/07/14 10:59:25;;;;;;;3.40;1.23;;;;;;;34.07;17.42;98680.81;4425089;32;20122;-82
2022/07/14 11:05:02;;;;;;;4.93;1.40;;;;;;;34.48;17.75;98675.44;4437619;32;20109;-82
2022/07/14 11:07:48;;;;;;;6.18;1.50;;;;;;;34.64;16.48;98677.38;4437518;32;20128;-83
2022/07/14 11:10:24;;;;;;;2.78;1.15;;;;;;;34.61;16.87;98672.41;4437832;32;20173;-83
2022/07/14 11:13:05;;;;;;;2.57;0.90;;;;;;;34.71;16.66;98666.31;4437645;32;20170;-82
2022/07/14 11:15:54;;;;;;;7.28;1.20;;;;;;;34.93;15.84;98663.75;4437621;32;20129;-83
2022/07/14 11:18:21;;;;;;;3.33;1.20;;;;;;;34.91;17.27;98660.44;4460923;31;20264;-82
2022/07/14 11:21:00;;;;;;;7.35;1.30;;;;;;;35.04;16.52;98656.53;4502565;31;20114;-82
2022/07/14 11:23:32;;;;;;;4.90;1.30;;;;;;;34.86;15.86;98654.84;4502716;31;20437;-83
2022/07/14 11:26:02;;;;;;;4.72;1.20;;;;;;;34.51;16.19;98669.47;4502380;31;20465;-82
2022/07/14 11:28:44;;;;;;;4.60;1.10;;;;;;;34.74;16.11;98662.28;4502709;31;20080;-83
2022/07/14 11:31:12;;;;;;;3.67;1.12;;;;;;;34.77;16.01;98659.03;4487548;31;20104;-82
2022/07/14 11:36:24;;;;;;;4.82;1.10;;;;;;;34.88;15.82;98657.34;4493945;31;20115;-83
2022/07/14 11:39:11;;;;;;;2.60;0.95;;;;;;;35.27;15.54;98647.38;4465102;32;20144;-84
2022/07/14 11:41:42;;;;;;;3.33;1.10;;;;;;;35.12;15.32;98650.69;4486451;32;20152;-84
2022/07/14 11:44:07;;;;;;;3.90;1.20;;;;;;;35.48;15.43;98640.31;4485969;31;20147;-83
2022/07/14 11:46:33;;;;;;;6.47;1.27;;;;;;;35.31;15.69;98643.09;4497932;31;20141;-84
2022/07/14 11:49:00;;;;;;;3.22;1.30;;;;;;;35.55;15.00;98646.47;4478783;31;20156;-85
2022/07/14 11:51:27;;;;;;;5.00;1.30;;;;;;;35.84;14.91;98638.16;4486144;31;20138;-83
2022/07/14 11:53:55;;;;;;;;;;;;;;;36.18;14.77;98635.34;4488038;31;20088;-83